sensor_id;sensor_type;location;lat;lon;timestamp;pressure;altitude;pressure_sealevel;temperature;humidity
29247;BME280;16272;48.188;9.964;2023-03-14T00:00:07;94376.50;;;10.40;77.81
29247;BME280;16272;48.188;9.964;2023-03-14T00:02:34;94380.97;;;10.39;76.61
29247;BME280;16272;48.188;9.964;2023-03-14T00:05:00;94386.06;;;10.26;76.16
29247;BME280;16272;48.188;9.964;2023-03-14T00:07:27;94411.47;;;9.75;78.68
29247;BME280;16272;48.188;9.964;2023-03-14T00:09:53;94401.63;;;9.69;78.19
29247;BME280;16272;48.188;9.964;2023-03-14T00:12:18;94420.84;;;10.16;77.40
29247;BME280;16272;48.188;9.964;2023-03-14T00:14:44;94416.84;;;10.05;77.44
29247;BME280;16272;48.188;9.964;2023-03-14T00:17:09;94431.63;;;9.85;78.48
29247;BME280;16272;48.188;9.964;2023-03-14T00:19:34;94437.13;;;10.28;77.57
29247;BME280;16272;48.188;9.964;2023-03-14T00:21:59;94423.94;;;10.20;77.63
29247;BME280;16272;48.188;9.964;2023-03-14T00:24:25;94419.75;;;9.81;77.92
29247;BME280;16272;48.188;9.964;2023-03-14T00:26:50;94408.31;;;10.10;78.47
29247;BME280;16272;48.188;9.964;2023-03-14T00:29:15;94410.50;;;10.06;78.86
29247;BME280;16272;48.188;9.964;2023-03-14T00:31:40;94414.56;;;10.47;76.23
29247;BME280;16272;48.188;9.964;2023-03-14T00:34:06;94422.88;;;10.14;77.40
29247;BME280;16272;48.188;9.964;2023-03-14T00:36:31;94428.19;;;9.61;78.92
29247;BME280;16272;48.188;9.964;2023-03-14T00:38:56;94441.69;;;9.51;79.89
29247;BME280;16272;48.188;9.964;2023-03-14T00:41:22;94447.09;;;9.58;79.92
29247;BME280;16272;48.188;9.964;2023-03-14T00:43:48;94430.25;;;9.74;79.01
29247;BME280;16272;48.188;9.964;2023-03-14T00:46:13;94428.03;;;9.63;79.09
29247;BME280;16272;48.188;9.964;2023-03-14T00:48:39;94409.31;;;9.94;77.49
29247;BME280;16272;48.188;9.964;2023-03-14T00:51:05;94389.81;;;10.02;77.43
29247;BME280;16272;48.188;9.964;2023-03-14T00:53:35;94392.91;;;9.75;78.39
29247;BME280;16272;48.188;9.964;2023-03-14T00:56:03;94392.88;;;9.99;77.18
29247;BME280;16272;48.188;9.964;2023-03-14T00:58:29;94399.88;;;9.91;77.79
29247;BME280;16272;48.188;9.964;2023-03-14T01:00:54;94389.53;;;9.82;77.97
29247;BME280;16272;48.188;9.964;2023-03-14T01:03:20;94356.00;;;10.19;77.15
29247;BME280;16272;48.188;9.964;2023-03-14T01:05:46;94329.00;;;9.85;77.50
29247;BME280;16272;48.188;9.964;2023-03-14T01:08:11;94320.59;;;9.82;78.94
29247;BME280;16272;48.188;9.964;2023-03-14T01:10:40;94320.16;;;9.78;78.78
29247;BME280;16272;48.188;9.964;2023-03-14T01:13:06;94312.75;;;9.73;78.50
29247;BME280;16272;48.188;9.964;2023-03-14T01:15:33;94321.16;;;9.62;78.44
29247;BME280;16272;48.188;9.964;2023-03-14T01:17:58;94308.75;;;9.63;77.29
29247;BME280;16272;48.188;9.964;2023-03-14T01:20:23;94295.22;;;9.72;76.73
29247;BME280;16272;48.188;9.964;2023-03-14T01:22:49;94291.00;;;9.63;76.65
29247;BME280;16272;48.188;9.964;2023-03-14T01:25:17;94271.78;;;9.91;74.94
29247;BME280;16272;48.188;9.964;2023-03-14T01:27:43;94252.50;;;9.82;75.63
29247;BME280;16272;48.188;9.964;2023-03-14T01:30:09;94230.22;;;9.47;75.37
29247;BME280;16272;48.188;9.964;2023-03-14T01:32:36;94218.75;;;9.91;75.39
29247;BME280;16272;48.188;9.964;2023-03-14T01:35:02;94220.16;;;9.42;75.99
29247;BME280;16272;48.188;9.964;2023-03-14T01:37:28;94229.56;;;9.74;74.67
29247;BME280;16272;48.188;9.964;2023-03-14T01:39:53;94236.75;;;9.96;73.43
29247;BME280;16272;48.188;9.964;2023-03-14T01:42:18;94255.94;;;9.98;74.40
29247;BME280;16272;48.188;9.964;2023-03-14T01:44:55;94250.47;;;9.99;73.80
29247;BME280;16272;48.188;9.964;2023-03-14T01:47:21;94265.94;;;9.81;74.62
29247;BME280;16272;48.188;9.964;2023-03-14T01:49:53;94254.13;;;9.83;75.10
29247;BME280;16272;48.188;9.964;2023-03-14T01:52:23;94258.75;;;9.60;74.34
29247;BME280;16272;48.188;9.964;2023-03-14T01:54:53;94244.56;;;10.19;72.85
29247;BME280;16272;48.188;9.964;2023-03-14T01:57:23;94237.00;;;9.64;74.35
29247;BME280;16272;48.188;9.964;2023-03-14T02:00:05;94237.63;;;9.66;75.43
29247;BME280;16272;48.188;9.964;2023-03-14T02:02:45;94247.97;;;9.46;75.39
29247;BME280;16272;48.188;9.964;2023-03-14T02:05:12;94241.19;;;9.44;76.16
29247;BME280;16272;48.188;9.964;2023-03-14T02:07:54;94248.06;;;9.53;75.47
29247;BME280;16272;48.188;9.964;2023-03-14T02:10:22;94249.13;;;9.44;76.43
29247;BME280;16272;48.188;9.964;2023-03-14T02:12:49;94251.97;;;9.42;76.26
29247;BME280;16272;48.188;9.964;2023-03-14T02:15:16;94248.94;;;9.30;75.65
29247;BME280;16272;48.188;9.964;2023-03-14T02:17:42;94246.75;;;9.19;75.79
29247;BME280;16272;48.188;9.964;2023-03-14T02:20:33;94246.94;;;9.62;74.81
29247;BME280;16272;48.188;9.964;2023-03-14T02:22:59;94242.75;;;9.23;75.75
29247;BME280;16272;48.188;9.964;2023-03-14T02:25:51;94242.19;;;9.43;75.08
29247;BME280;16272;48.188;9.964;2023-03-14T02:28:20;94240.56;;;9.42;75.70
29247;BME280;16272;48.188;9.964;2023-03-14T02:30:45;94225.81;;;9.54;75.92
29247;BME280;16272;48.188;9.964;2023-03-14T02:33:15;94230.69;;;9.35;76.39
29247;BME280;16272;48.188;9.964;2023-03-14T02:38:28;94219.53;;;9.25;76.75
29247;BME280;16272;48.188;9.964;2023-03-14T02:40:56;94227.16;;;8.90;77.65
29247;BME280;16272;48.188;9.964;2023-03-14T02:43:22;94235.59;;;8.94;78.22
29247;BME280;16272;48.188;9.964;2023-03-14T02:45:49;94236.81;;;8.83;77.49
29247;BME280;16272;48.188;9.964;2023-03-14T02:48:58;94229.69;;;9.22;76.19
29247;BME280;16272;48.188;9.964;2023-03-14T02:51:03;94235.59;;;8.94;77.20
29247;BME280;16272;48.188;9.964;2023-03-14T02:53:33;94237.50;;;9.00;77.21
29247;BME280;16272;48.188;9.964;2023-03-14T02:55:59;94231.22;;;9.16;76.85
29247;BME280;16272;48.188;9.964;2023-03-14T02:58:26;94226.44;;;8.96;77.19
29247;BME280;16272;48.188;9.964;2023-03-14T03:00:51;94228.44;;;8.94;77.28
29247;BME280;16272;48.188;9.964;2023-03-14T03:03:17;94231.91;;;8.95;77.59
29247;BME280;16272;48.188;9.964;2023-03-14T03:05:42;94225.38;;;9.06;76.99
29247;BME280;16272;48.188;9.964;2023-03-14T03:08:09;94230.53;;;8.84;77.08
29247;BME280;16272;48.188;9.964;2023-03-14T03:10:35;94227.53;;;8.87;77.16
29247;BME280;16272;48.188;9.964;2023-03-14T03:13:00;94222.53;;;9.07;76.08
29247;BME280;16272;48.188;9.964;2023-03-14T03:15:26;94220.59;;;8.86;76.27
29247;BME280;16272;48.188;9.964;2023-03-14T03:17:51;94209.66;;;9.04;76.01
29247;BME280;16272;48.188;9.964;2023-03-14T03:20:17;94207.63;;;8.91;76.87
29247;BME280;16272;48.188;9.964;2023-03-14T03:22:42;94191.22;;;9.11;76.51
29247;BME280;16272;48.188;9.964;2023-03-14T03:25:08;94173.66;;;8.80;77.33
29247;BME280;16272;48.188;9.964;2023-03-14T03:27:35;94173.66;;;8.80;76.40
29247;BME280;16272;48.188;9.964;2023-03-14T03:30:02;94172.75;;;8.88;76.30
29247;BME280;16272;48.188;9.964;2023-03-14T03:32:27;94173.09;;;8.70;77.42
29247;BME280;16272;48.188;9.964;2023-03-14T03:34:52;94170.75;;;9.05;76.01
29247;BME280;16272;48.188;9.964;2023-03-14T03:37:18;94154.38;;;8.71;76.51
29247;BME280;16272;48.188;9.964;2023-03-14T03:39:43;94166.59;;;8.72;76.54
29247;BME280;16272;48.188;9.964;2023-03-14T03:42:09;94154.41;;;8.86;76.47
29247;BME280;16272;48.188;9.964;2023-03-14T03:44:34;94161.03;;;8.82;76.34
29247;BME280;16272;48.188;9.964;2023-03-14T03:47:00;94157.13;;;8.63;77.15
29247;BME280;16272;48.188;9.964;2023-03-14T03:49:29;94160.50;;;8.72;77.08
29247;BME280;16272;48.188;9.964;2023-03-14T03:51:55;94174.75;;;8.71;77.44
29247;BME280;16272;48.188;9.964;2023-03-14T03:54:20;94174.38;;;8.74;77.11
29247;BME280;16272;48.188;9.964;2023-03-14T03:56:45;94166.81;;;8.71;76.67
29247;BME280;16272;48.188;9.964;2023-03-14T03:59:10;94170.28;;;8.71;77.14
29247;BME280;16272;48.188;9.964;2023-03-14T04:01:36;94162.16;;;8.73;77.24
29247;BME280;16272;48.188;9.964;2023-03-14T04:04:01;94156.06;;;8.49;77.10
29247;BME280;16272;48.188;9.964;2023-03-14T04:06:26;94160.50;;;8.87;76.15
29247;BME280;16272;48.188;9.964;2023-03-14T04:08:53;94150.19;;;8.77;76.05
29247;BME280;16272;48.188;9.964;2023-03-14T04:11:18;94142.69;;;8.65;76.69
29247;BME280;16272;48.188;9.964;2023-03-14T04:13:44;94141.88;;;8.80;76.10
29247;BME280;16272;48.188;9.964;2023-03-14T04:16:16;94151.22;;;8.76;75.80
29247;BME280;16272;48.188;9.964;2023-03-14T04:18:42;94139.69;;;8.98;75.12
29247;BME280;16272;48.188;9.964;2023-03-14T04:21:07;94140.25;;;9.09;74.64
29247;BME280;16272;48.188;9.964;2023-03-14T04:23:34;94139.50;;;9.15;73.67
29247;BME280;16272;48.188;9.964;2023-03-14T04:25:59;94145.38;;;8.95;74.29
29247;BME280;16272;48.188;9.964;2023-03-14T04:28:25;94143.44;;;8.89;74.05
29247;BME280;16272;48.188;9.964;2023-03-14T04:30:50;94134.38;;;8.69;74.32
29247;BME280;16272;48.188;9.964;2023-03-14T04:33:15;94124.47;;;8.71;74.24
29247;BME280;16272;48.188;9.964;2023-03-14T04:35:43;94122.81;;;9.14;73.15
29247;BME280;16272;48.188;9.964;2023-03-14T04:38:08;94116.16;;;9.04;72.87
29247;BME280;16272;48.188;9.964;2023-03-14T04:40:36;94111.50;;;9.06;72.51
29247;BME280;16272;48.188;9.964;2023-03-14T04:43:02;94112.41;;;8.68;73.61
29247;BME280;16272;48.188;9.964;2023-03-14T04:45:27;94109.31;;;8.79;73.66
29247;BME280;16272;48.188;9.964;2023-03-14T04:47:52;94094.78;;;8.75;73.40
29247;BME280;16272;48.188;9.964;2023-03-14T04:50:18;94089.56;;;8.67;73.22
29247;BME280;16272;48.188;9.964;2023-03-14T04:52:43;94091.41;;;8.96;72.54
29247;BME280;16272;48.188;9.964;2023-03-14T04:55:08;94084.63;;;8.49;74.31
29247;BME280;16272;48.188;9.964;2023-03-14T04:57:34;94079.38;;;8.94;72.91
29247;BME280;16272;48.188;9.964;2023-03-14T04:59:59;94079.28;;;8.87;72.26
29247;BME280;16272;48.188;9.964;2023-03-14T05:02:24;94069.97;;;8.61;73.03
29247;BME280;16272;48.188;9.964;2023-03-14T05:04:50;94077.25;;;8.89;72.33
29247;BME280;16272;48.188;9.964;2023-03-14T05:07:15;94073.69;;;8.52;73.28
29247;BME280;16272;48.188;9.964;2023-03-14T05:09:40;94071.03;;;8.52;73.92
29247;BME280;16272;48.188;9.964;2023-03-14T05:12:06;94073.81;;;8.21;74.11
29247;BME280;16272;48.188;9.964;2023-03-14T05:14:31;94064.31;;;8.64;72.96
29247;BME280;16272;48.188;9.964;2023-03-14T05:16:56;94065.03;;;8.58;73.83
29247;BME280;16272;48.188;9.964;2023-03-14T05:19:22;94053.38;;;8.68;72.54
29247;BME280;16272;48.188;9.964;2023-03-14T05:21:47;94058.00;;;8.80;73.14
29247;BME280;16272;48.188;9.964;2023-03-14T05:24:12;94054.84;;;8.32;74.68
29247;BME280;16272;48.188;9.964;2023-03-14T05:26:37;94058.22;;;8.41;73.89
29247;BME280;16272;48.188;9.964;2023-03-14T05:29:03;94055.66;;;8.33;74.06
29247;BME280;16272;48.188;9.964;2023-03-14T05:31:28;94054.81;;;8.55;73.64
29247;BME280;16272;48.188;9.964;2023-03-14T05:33:53;94050.94;;;8.28;73.90
29247;BME280;16272;48.188;9.964;2023-03-14T05:36:19;94043.63;;;8.30;74.20
29247;BME280;16272;48.188;9.964;2023-03-14T05:38:44;94043.34;;;8.10;74.57
29247;BME280;16272;48.188;9.964;2023-03-14T05:41:09;94035.53;;;8.32;73.93
29247;BME280;16272;48.188;9.964;2023-03-14T05:43:36;94022.38;;;8.23;74.46
29247;BME280;16272;48.188;9.964;2023-03-14T05:46:01;94004.28;;;8.50;74.26
29247;BME280;16272;48.188;9.964;2023-03-14T05:48:26;94008.28;;;8.46;73.48
29247;BME280;16272;48.188;9.964;2023-03-14T05:50:56;94000.78;;;8.35;73.69
29247;BME280;16272;48.188;9.964;2023-03-14T05:53:21;94014.31;;;8.55;73.10
29247;BME280;16272;48.188;9.964;2023-03-14T05:55:46;94005.91;;;8.51;73.25
29247;BME280;16272;48.188;9.964;2023-03-14T05:58:12;94005.69;;;8.38;73.98
29247;BME280;16272;48.188;9.964;2023-03-14T06:00:37;93997.16;;;8.51;72.93
29247;BME280;16272;48.188;9.964;2023-03-14T06:03:03;94000.25;;;8.54;73.56
29247;BME280;16272;48.188;9.964;2023-03-14T06:05:28;93995.50;;;8.64;72.85
29247;BME280;16272;48.188;9.964;2023-03-14T06:07:53;93992.50;;;8.53;72.84
29247;BME280;16272;48.188;9.964;2023-03-14T06:10:18;93994.03;;;8.32;73.47
29247;BME280;16272;48.188;9.964;2023-03-14T06:12:44;93998.31;;;8.33;73.40
29247;BME280;16272;48.188;9.964;2023-03-14T06:15:09;94001.44;;;8.52;73.05
29247;BME280;16272;48.188;9.964;2023-03-14T06:17:35;93993.78;;;8.57;72.67
29247;BME280;16272;48.188;9.964;2023-03-14T06:20:00;93987.03;;;8.69;71.93
29247;BME280;16272;48.188;9.964;2023-03-14T06:22:26;93988.41;;;8.50;72.49
29247;BME280;16272;48.188;9.964;2023-03-14T06:24:51;93991.84;;;8.65;72.60
29247;BME280;16272;48.188;9.964;2023-03-14T06:27:16;93996.94;;;8.82;71.34
29247;BME280;16272;48.188;9.964;2023-03-14T06:29:42;93993.69;;;8.50;72.21
29247;BME280;16272;48.188;9.964;2023-03-14T06:32:07;93998.25;;;8.56;72.58
29247;BME280;16272;48.188;9.964;2023-03-14T06:34:32;94003.91;;;8.53;72.16
29247;BME280;16272;48.188;9.964;2023-03-14T06:36:58;94001.53;;;8.58;72.50
29247;BME280;16272;48.188;9.964;2023-03-14T06:39:23;93996.06;;;8.45;72.75
29247;BME280;16272;48.188;9.964;2023-03-14T06:41:49;93993.84;;;8.63;72.05
29247;BME280;16272;48.188;9.964;2023-03-14T06:44:14;93989.72;;;9.27;70.21
29247;BME280;16272;48.188;9.964;2023-03-14T06:46:39;93998.38;;;9.57;68.74
29247;BME280;16272;48.188;9.964;2023-03-14T06:49:04;94012.44;;;8.85;71.82
29247;BME280;16272;48.188;9.964;2023-03-14T06:51:30;93999.13;;;9.15;70.06
29247;BME280;16272;48.188;9.964;2023-03-14T06:53:55;94019.09;;;8.96;70.91
29247;BME280;16272;48.188;9.964;2023-03-14T06:56:20;94010.81;;;8.84;71.75
29247;BME280;16272;48.188;9.964;2023-03-14T06:58:46;94012.34;;;8.93;70.49
29247;BME280;16272;48.188;9.964;2023-03-14T07:01:21;94013.66;;;8.68;72.02
29247;BME280;16272;48.188;9.964;2023-03-14T07:03:47;94006.09;;;9.37;69.77
29247;BME280;16272;48.188;9.964;2023-03-14T07:06:13;94001.84;;;9.58;68.77
29247;BME280;16272;48.188;9.964;2023-03-14T07:08:38;94012.50;;;9.43;69.38
29247;BME280;16272;48.188;9.964;2023-03-14T07:11:04;94019.41;;;9.44;68.91
29247;BME280;16272;48.188;9.964;2023-03-14T07:13:30;94019.09;;;9.32;68.92
29247;BME280;16272;48.188;9.964;2023-03-14T07:15:55;94012.97;;;9.97;68.14
29247;BME280;16272;48.188;9.964;2023-03-14T07:18:20;94021.00;;;9.82;67.97
29247;BME280;16272;48.188;9.964;2023-03-14T07:20:46;94016.47;;;9.54;68.28
29247;BME280;16272;48.188;9.964;2023-03-14T07:23:11;94021.56;;;9.99;67.00
29247;BME280;16272;48.188;9.964;2023-03-14T07:25:36;94029.72;;;9.54;67.71
29247;BME280;16272;48.188;9.964;2023-03-14T07:28:01;94028.72;;;9.55;68.92
29247;BME280;16272;48.188;9.964;2023-03-14T07:30:27;94030.38;;;9.56;67.81
29247;BME280;16272;48.188;9.964;2023-03-14T07:32:52;94035.78;;;10.19;66.09
29247;BME280;16272;48.188;9.964;2023-03-14T07:35:18;94035.69;;;10.06;66.61
29247;BME280;16272;48.188;9.964;2023-03-14T07:37:43;94036.72;;;9.62;67.50
29247;BME280;16272;48.188;9.964;2023-03-14T07:40:09;94030.16;;;10.01;67.42
29247;BME280;16272;48.188;9.964;2023-03-14T07:42:35;94045.75;;;9.89;67.33
29247;BME280;16272;48.188;9.964;2023-03-14T07:45:01;94048.84;;;9.71;68.70
29247;BME280;16272;48.188;9.964;2023-03-14T07:47:26;94049.09;;;10.26;66.25
29247;BME280;16272;48.188;9.964;2023-03-14T07:49:51;94039.09;;;10.84;64.28
29247;BME280;16272;48.188;9.964;2023-03-14T07:52:17;94034.31;;;10.66;64.33
29247;BME280;16272;48.188;9.964;2023-03-14T07:54:42;94044.03;;;10.88;65.34
29247;BME280;16272;48.188;9.964;2023-03-14T07:57:07;94043.38;;;10.51;64.83
29247;BME280;16272;48.188;9.964;2023-03-14T07:59:33;94048.09;;;10.27;66.18
29247;BME280;16272;48.188;9.964;2023-03-14T08:01:59;94052.47;;;10.63;64.72
29247;BME280;16272;48.188;9.964;2023-03-14T08:04:24;94057.19;;;11.09;63.51
29247;BME280;16272;48.188;9.964;2023-03-14T08:06:49;94052.72;;;10.40;66.83
29247;BME280;16272;48.188;9.964;2023-03-14T08:09:15;94054.13;;;10.14;66.03
29247;BME280;16272;48.188;9.964;2023-03-14T08:11:40;94054.44;;;10.54;66.72
29247;BME280;16272;48.188;9.964;2023-03-14T08:14:05;94050.28;;;12.77;60.86
29247;BME280;16272;48.188;9.964;2023-03-14T08:16:31;94044.44;;;13.65;57.40
29247;BME280;16272;48.188;9.964;2023-03-14T08:18:56;94052.50;;;15.35;54.85
29247;BME280;16272;48.188;9.964;2023-03-14T08:21:22;94051.69;;;13.58;54.21
29247;BME280;16272;48.188;9.964;2023-03-14T08:23:47;94058.25;;;15.50;54.21
29247;BME280;16272;48.188;9.964;2023-03-14T08:26:13;94068.53;;;12.66;58.75
29247;BME280;16272;48.188;9.964;2023-03-14T08:28:38;94059.53;;;12.27;61.09
29247;BME280;16272;48.188;9.964;2023-03-14T08:31:04;94057.09;;;12.19;59.99
29247;BME280;16272;48.188;9.964;2023-03-14T08:33:29;94055.34;;;12.98;60.30
29247;BME280;16272;48.188;9.964;2023-03-14T08:35:56;94055.88;;;12.22;62.20
29247;BME280;16272;48.188;9.964;2023-03-14T08:38:22;94055.84;;;12.08;60.54
29247;BME280;16272;48.188;9.964;2023-03-14T08:40:47;94052.16;;;12.09;61.66
29247;BME280;16272;48.188;9.964;2023-03-14T08:43:13;94050.34;;;12.30;61.82
29247;BME280;16272;48.188;9.964;2023-03-14T08:45:38;94047.66;;;12.50;60.46
29247;BME280;16272;48.188;9.964;2023-03-14T08:48:04;94046.84;;;12.36;59.91
29247;BME280;16272;48.188;9.964;2023-03-14T08:50:29;94046.63;;;12.64;60.05
29247;BME280;16272;48.188;9.964;2023-03-14T08:52:54;94043.56;;;12.27;60.57
29247;BME280;16272;48.188;9.964;2023-03-14T08:55:20;94040.31;;;12.25;58.44
29247;BME280;16272;48.188;9.964;2023-03-14T08:57:46;94053.16;;;12.62;60.58
29247;BME280;16272;48.188;9.964;2023-03-14T09:00:11;94046.75;;;12.96;59.88
29247;BME280;16272;48.188;9.964;2023-03-14T09:02:41;94041.31;;;12.24;59.18
29247;BME280;16272;48.188;9.964;2023-03-14T09:05:07;94045.16;;;11.82;60.08
29247;BME280;16272;48.188;9.964;2023-03-14T09:07:32;94047.06;;;12.14;60.25
29247;BME280;16272;48.188;9.964;2023-03-14T09:09:58;94054.19;;;12.54;59.01
29247;BME280;16272;48.188;9.964;2023-03-14T09:12:23;94055.84;;;12.55;58.96
29247;BME280;16272;48.188;9.964;2023-03-14T09:14:48;94046.28;;;13.13;57.29
29247;BME280;16272;48.188;9.964;2023-03-14T09:17:14;94041.03;;;13.90;58.30
29247;BME280;16272;48.188;9.964;2023-03-14T09:19:39;94032.13;;;13.71;57.01
29247;BME280;16272;48.188;9.964;2023-03-14T09:22:04;94040.59;;;13.93;54.30
29247;BME280;16272;48.188;9.964;2023-03-14T09:24:30;94032.34;;;13.69;55.64
29247;BME280;16272;48.188;9.964;2023-03-14T09:26:55;94038.69;;;13.68;56.35
29247;BME280;16272;48.188;9.964;2023-03-14T09:29:22;94021.94;;;14.43;55.71
29247;BME280;16272;48.188;9.964;2023-03-14T09:31:47;94040.13;;;14.53;57.76
29247;BME280;16272;48.188;9.964;2023-03-14T09:34:12;94027.66;;;14.22;54.94
29247;BME280;16272;48.188;9.964;2023-03-14T09:36:38;94032.63;;;13.86;57.54
29247;BME280;16272;48.188;9.964;2023-03-14T09:39:04;94046.78;;;14.19;57.09
29247;BME280;16272;48.188;9.964;2023-03-14T09:41:33;94036.44;;;13.65;57.30
29247;BME280;16272;48.188;9.964;2023-03-14T09:44:11;94035.56;;;14.35;56.79
29247;BME280;16272;48.188;9.964;2023-03-14T09:46:40;94031.75;;;14.24;54.45
29247;BME280;16272;48.188;9.964;2023-03-14T09:49:20;94041.81;;;14.47;51.71
29247;BME280;16272;48.188;9.964;2023-03-14T09:51:49;94029.00;;;14.63;54.57
29247;BME280;16272;48.188;9.964;2023-03-14T09:54:29;94027.00;;;13.69;53.93
29247;BME280;16272;48.188;9.964;2023-03-14T09:56:56;94019.50;;;13.85;55.27
29247;BME280;16272;48.188;9.964;2023-03-14T09:59:21;94040.59;;;13.61;55.08
29247;BME280;16272;48.188;9.964;2023-03-14T10:01:49;94020.22;;;13.67;55.88
29247;BME280;16272;48.188;9.964;2023-03-14T10:04:20;94013.13;;;13.54;54.66
29247;BME280;16272;48.188;9.964;2023-03-14T10:06:47;94035.44;;;13.08;55.26
29247;BME280;16272;48.188;9.964;2023-03-14T10:09:19;94031.38;;;13.57;53.38
29247;BME280;16272;48.188;9.964;2023-03-14T10:11:56;94021.81;;;14.06;54.36
29247;BME280;16272;48.188;9.964;2023-03-14T10:14:33;94026.91;;;13.83;52.04
29247;BME280;16272;48.188;9.964;2023-03-14T10:17:06;94025.06;;;14.08;53.26
29247;BME280;16272;48.188;9.964;2023-03-14T10:19:32;94036.22;;;13.98;53.46
29247;BME280;16272;48.188;9.964;2023-03-14T10:22:00;94026.50;;;13.86;53.62
29247;BME280;16272;48.188;9.964;2023-03-14T10:24:34;94036.28;;;15.30;51.17
29247;BME280;16272;48.188;9.964;2023-03-14T10:27:21;94031.25;;;14.34;53.97
29247;BME280;16272;48.188;9.964;2023-03-14T10:30:26;94030.44;;;13.76;53.05
29247;BME280;16272;48.188;9.964;2023-03-14T10:32:52;94022.97;;;14.42;52.11
29247;BME280;16272;48.188;9.964;2023-03-14T10:35:20;94033.31;;;14.32;53.29
29247;BME280;16272;48.188;9.964;2023-03-14T10:37:52;94030.56;;;13.56;53.37
29247;BME280;16272;48.188;9.964;2023-03-14T10:40:20;94038.91;;;13.08;53.32
29247;BME280;16272;48.188;9.964;2023-03-14T10:42:49;94032.16;;;13.57;52.10
29247;BME280;16272;48.188;9.964;2023-03-14T10:45:39;94048.88;;;13.39;53.00
29247;BME280;16272;48.188;9.964;2023-03-14T10:48:21;94046.22;;;13.39;53.27
29247;BME280;16272;48.188;9.964;2023-03-14T10:50:56;94052.88;;;13.62;54.31
29247;BME280;16272;48.188;9.964;2023-03-14T10:53:22;94057.72;;;13.78;53.49
29247;BME280;16272;48.188;9.964;2023-03-14T10:55:47;94055.53;;;15.01;51.20
29247;BME280;16272;48.188;9.964;2023-03-14T10:58:24;94049.00;;;15.83;51.46
29247;BME280;16272;48.188;9.964;2023-03-14T11:00:55;94057.91;;;14.15;53.52
29247;BME280;16272;48.188;9.964;2023-03-14T11:03:23;94046.06;;;14.55;50.96
29247;BME280;16272;48.188;9.964;2023-03-14T11:05:56;94033.75;;;14.04;52.24
29247;BME280;16272;48.188;9.964;2023-03-14T11:08:27;94054.44;;;14.08;53.16
29247;BME280;16272;48.188;9.964;2023-03-14T11:11:12;94046.69;;;14.00;52.54
29247;BME280;16272;48.188;9.964;2023-03-14T11:13:48;94047.13;;;14.79;51.72
29247;BME280;16272;48.188;9.964;2023-03-14T11:19:20;94081.09;;;13.45;54.18
29247;BME280;16272;48.188;9.964;2023-03-14T11:27:25;94070.31;;;13.65;53.86
29247;BME280;16272;48.188;9.964;2023-03-14T11:30:01;94058.75;;;13.77;54.13
29247;BME280;16272;48.188;9.964;2023-03-14T11:32:40;94077.75;;;12.84;54.74
29247;BME280;16272;48.188;9.964;2023-03-14T11:35:16;94057.75;;;13.20;52.69
29247;BME280;16272;48.188;9.964;2023-03-14T11:37:52;94063.03;;;13.40;52.43
29247;BME280;16272;48.188;9.964;2023-03-14T11:40:22;94079.25;;;13.38;53.23
29247;BME280;16272;48.188;9.964;2023-03-14T11:42:59;94067.31;;;12.76;55.25
29247;BME280;16272;48.188;9.964;2023-03-14T11:45:38;94074.19;;;13.03;54.69
29247;BME280;16272;48.188;9.964;2023-03-14T11:48:15;94082.88;;;12.52;54.25
29247;BME280;16272;48.188;9.964;2023-03-14T11:50:43;94074.31;;;12.37;55.05
29247;BME280;16272;48.188;9.964;2023-03-14T11:53:14;94088.28;;;13.24;53.34
29247;BME280;16272;48.188;9.964;2023-03-14T11:55:42;94084.84;;;13.03;53.79
29247;BME280;16272;48.188;9.964;2023-03-14T11:58:22;94086.56;;;12.78;54.49
29247;BME280;16272;48.188;9.964;2023-03-14T12:00:50;94102.56;;;12.71;55.45
29247;BME280;16272;48.188;9.964;2023-03-14T12:03:32;94113.19;;;12.24;57.51
29247;BME280;16272;48.188;9.964;2023-03-14T12:06:17;94116.44;;;12.13;56.73
29247;BME280;16272;48.188;9.964;2023-03-14T12:11:18;94105.97;;;11.91;57.14
29247;BME280;16272;48.188;9.964;2023-03-14T12:13:50;94106.63;;;12.60;56.87
29247;BME280;16272;48.188;9.964;2023-03-14T12:18:51;94123.72;;;11.77;59.04
29247;BME280;16272;48.188;9.964;2023-03-14T12:21:18;94123.03;;;12.30;58.55
29247;BME280;16272;48.188;9.964;2023-03-14T12:23:52;94139.38;;;12.07;58.97
29247;BME280;16272;48.188;9.964;2023-03-14T12:26:50;94133.81;;;11.47;59.50
29247;BME280;16272;48.188;9.964;2023-03-14T12:29:16;94138.63;;;11.24;60.26
29247;BME280;16272;48.188;9.964;2023-03-14T12:31:46;94140.34;;;11.03;61.70
29247;BME280;16272;48.188;9.964;2023-03-14T12:39:25;94164.50;;;10.80;64.01
29247;BME280;16272;48.188;9.964;2023-03-14T12:42:12;94170.38;;;9.89;68.24
29247;BME280;16272;48.188;9.964;2023-03-14T12:44:40;94168.91;;;10.44;67.75
29247;BME280;16272;48.188;9.964;2023-03-14T12:49:46;94180.13;;;10.96;66.20
29247;BME280;16272;48.188;9.964;2023-03-14T12:52:16;94173.31;;;10.59;65.38
29247;BME280;16272;48.188;9.964;2023-03-14T12:55:02;94180.00;;;10.76;65.64
29247;BME280;16272;48.188;9.964;2023-03-14T12:57:59;94173.97;;;10.39;64.73
29247;BME280;16272;48.188;9.964;2023-03-14T13:00:39;94171.97;;;10.41;67.20
29247;BME280;16272;48.188;9.964;2023-03-14T13:03:18;94196.56;;;10.14;66.23
29247;BME280;16272;48.188;9.964;2023-03-14T13:05:58;94189.41;;;11.07;64.65
29247;BME280;16272;48.188;9.964;2023-03-14T13:08:40;94196.44;;;10.65;65.43
29247;BME280;16272;48.188;9.964;2023-03-14T13:11:18;94206.09;;;10.29;67.02
29247;BME280;16272;48.188;9.964;2023-03-14T13:13:49;94219.34;;;10.08;65.59
29247;BME280;16272;48.188;9.964;2023-03-14T13:16:20;94222.91;;;10.15;68.13
29247;BME280;16272;48.188;9.964;2023-03-14T13:18:47;94227.41;;;10.00;67.97
29247;BME280;16272;48.188;9.964;2023-03-14T13:21:21;94244.63;;;10.40;66.62
29247;BME280;16272;48.188;9.964;2023-03-14T13:24:03;94236.72;;;9.74;69.17
29247;BME280;16272;48.188;9.964;2023-03-14T13:26:41;94248.09;;;10.84;67.01
29247;BME280;16272;48.188;9.964;2023-03-14T13:29:19;94251.38;;;10.64;65.49
29247;BME280;16272;48.188;9.964;2023-03-14T13:31:47;94251.31;;;9.85;67.51
29247;BME280;16272;48.188;9.964;2023-03-14T13:34:12;94256.59;;;11.01;64.48